Terminal Aerodrome Forecast
Issued by NWS

Home | Current Version | Previous Version | Text Only | Print | Product List | Glossary On
Versions: 1 2 3 4 5 6 7 8 9 10 11 12 13 14 15
000
FTPA31 PHFO 151739
TAFHMK
TAF
PHMK 151739Z 1518/1618 02016G26KT P6SM VCSH SCT030 BKN045
      TEMPO 1518/1522 5SM -SHRA BKN030
     FM160300 01011G15KT 6SM -SHRA SCT030 BKN045
     FM160800 01006KT 6SM -SHRA SCT025 OVC040=

USA.gov is the U.S. government's official web portal to all federal, state and local government web resources and services.